sensor_id;sensor_type;location;lat;lon;timestamp;P1;durP1;ratioP1;P2;durP2;ratioP2
18499;SDS011;9379;52.134;11.576;2023-02-07T00:00:10;18.80;;;12.98;;
18499;SDS011;9379;52.134;11.576;2023-02-07T00:02:40;19.03;;;13.50;;
18499;SDS011;9379;52.134;11.576;2023-02-07T00:05:08;15.02;;;11.35;;
18499;SDS011;9379;52.134;11.576;2023-02-07T00:07:35;17.88;;;12.85;;
18499;SDS011;9379;52.134;11.576;2023-02-07T00:10:04;14.63;;;12.32;;
18499;SDS011;9379;52.134;11.576;2023-02-07T00:12:31;20.77;;;13.85;;
18499;SDS011;9379;52.134;11.576;2023-02-07T00:14:59;15.50;;;11.52;;
18499;SDS011;9379;52.134;11.576;2023-02-07T00:17:27;16.98;;;13.35;;
18499;SDS011;9379;52.134;11.576;2023-02-07T00:19:54;16.23;;;13.25;;
18499;SDS011;9379;52.134;11.576;2023-02-07T00:22:21;15.52;;;12.63;;
18499;SDS011;9379;52.134;11.576;2023-02-07T00:24:48;16.67;;;13.43;;
18499;SDS011;9379;52.134;11.576;2023-02-07T00:27:16;16.17;;;13.00;;
18499;SDS011;9379;52.134;11.576;2023-02-07T00:29:43;14.95;;;11.63;;
18499;SDS011;9379;52.134;11.576;2023-02-07T00:32:10;20.67;;;15.90;;
18499;SDS011;9379;52.134;11.576;2023-02-07T00:34:37;15.10;;;12.68;;
18499;SDS011;9379;52.134;11.576;2023-02-07T00:37:03;17.80;;;13.65;;
18499;SDS011;9379;52.134;11.576;2023-02-07T00:39:31;19.73;;;12.70;;
18499;SDS011;9379;52.134;11.576;2023-02-07T00:41:58;15.73;;;13.00;;
18499;SDS011;9379;52.134;11.576;2023-02-07T00:44:26;14.27;;;11.07;;
18499;SDS011;9379;52.134;11.576;2023-02-07T00:46:53;19.48;;;12.48;;
18499;SDS011;9379;52.134;11.576;2023-02-07T00:49:20;9.85;;;8.27;;
18499;SDS011;9379;52.134;11.576;2023-02-07T00:51:47;15.52;;;11.52;;
18499;SDS011;9379;52.134;11.576;2023-02-07T00:54:13;15.05;;;12.65;;
18499;SDS011;9379;52.134;11.576;2023-02-07T00:56:40;15.80;;;12.93;;
18499;SDS011;9379;52.134;11.576;2023-02-07T00:59:07;14.50;;;12.85;;
18499;SDS011;9379;52.134;11.576;2023-02-07T01:01:36;17.70;;;13.15;;
18499;SDS011;9379;52.134;11.576;2023-02-07T01:04:03;13.30;;;10.88;;
18499;SDS011;9379;52.134;11.576;2023-02-07T01:06:32;14.95;;;12.15;;
18499;SDS011;9379;52.134;11.576;2023-02-07T01:09:01;15.43;;;13.82;;
18499;SDS011;9379;52.134;11.576;2023-02-07T01:11:30;18.23;;;14.30;;
18499;SDS011;9379;52.134;11.576;2023-02-07T01:13:57;16.55;;;13.43;;
18499;SDS011;9379;52.134;11.576;2023-02-07T01:16:25;16.38;;;11.90;;
18499;SDS011;9379;52.134;11.576;2023-02-07T01:18:55;12.30;;;10.82;;
18499;SDS011;9379;52.134;11.576;2023-02-07T01:21:24;17.70;;;13.45;;
18499;SDS011;9379;52.134;11.576;2023-02-07T01:23:52;14.60;;;12.13;;
18499;SDS011;9379;52.134;11.576;2023-02-07T01:26:21;16.92;;;12.63;;
18499;SDS011;9379;52.134;11.576;2023-02-07T01:28:48;16.90;;;11.95;;
18499;SDS011;9379;52.134;11.576;2023-02-07T01:31:15;14.57;;;11.20;;
18499;SDS011;9379;52.134;11.576;2023-02-07T01:33:42;14.10;;;11.73;;
18499;SDS011;9379;52.134;11.576;2023-02-07T01:36:11;16.03;;;12.00;;
18499;SDS011;9379;52.134;11.576;2023-02-07T01:38:39;18.70;;;14.35;;
18499;SDS011;9379;52.134;11.576;2023-02-07T01:41:07;21.83;;;15.07;;
18499;SDS011;9379;52.134;11.576;2023-02-07T01:43:51;18.92;;;12.82;;
18499;SDS011;9379;52.134;11.576;2023-02-07T01:46:22;18.85;;;14.05;;
18499;SDS011;9379;52.134;11.576;2023-02-07T01:48:49;14.00;;;10.68;;
18499;SDS011;9379;52.134;11.576;2023-02-07T01:51:20;20.87;;;13.57;;
18499;SDS011;9379;52.134;11.576;2023-02-07T01:53:48;15.87;;;13.00;;
18499;SDS011;9379;52.134;11.576;2023-02-07T01:56:16;20.43;;;13.03;;
18499;SDS011;9379;52.134;11.576;2023-02-07T01:58:44;16.73;;;12.87;;
18499;SDS011;9379;52.134;11.576;2023-02-07T02:01:12;13.30;;;11.17;;
18499;SDS011;9379;52.134;11.576;2023-02-07T02:03:45;14.75;;;12.57;;
18499;SDS011;9379;52.134;11.576;2023-02-07T02:06:13;13.27;;;10.50;;
18499;SDS011;9379;52.134;11.576;2023-02-07T02:08:42;10.52;;;8.85;;
18499;SDS011;9379;52.134;11.576;2023-02-07T02:11:14;11.75;;;10.38;;
18499;SDS011;9379;52.134;11.576;2023-02-07T02:13:51;13.48;;;12.07;;
18499;SDS011;9379;52.134;11.576;2023-02-07T02:16:29;15.25;;;12.82;;
18499;SDS011;9379;52.134;11.576;2023-02-07T02:22:17;16.02;;;11.02;;
18499;SDS011;9379;52.134;11.576;2023-02-07T02:34:32;14.48;;;13.00;;
18499;SDS011;9379;52.134;11.576;2023-02-07T02:37:07;17.60;;;12.60;;
18499;SDS011;9379;52.134;11.576;2023-02-07T02:39:41;16.83;;;12.63;;
18499;SDS011;9379;52.134;11.576;2023-02-07T02:42:18;16.10;;;12.87;;
18499;SDS011;9379;52.134;11.576;2023-02-07T02:44:53;18.30;;;14.00;;
18499;SDS011;9379;52.134;11.576;2023-02-07T02:47:24;13.50;;;12.10;;
18499;SDS011;9379;52.134;11.576;2023-02-07T02:49:54;16.53;;;12.80;;
18499;SDS011;9379;52.134;11.576;2023-02-07T02:52:22;18.63;;;13.43;;
18499;SDS011;9379;52.134;11.576;2023-02-07T02:54:48;22.30;;;14.77;;
18499;SDS011;9379;52.134;11.576;2023-02-07T02:57:20;13.63;;;11.60;;
18499;SDS011;9379;52.134;11.576;2023-02-07T03:00:17;19.08;;;14.13;;
18499;SDS011;9379;52.134;11.576;2023-02-07T03:02:57;13.80;;;11.40;;
18499;SDS011;9379;52.134;11.576;2023-02-07T03:05:39;16.50;;;13.55;;
18499;SDS011;9379;52.134;11.576;2023-02-07T03:08:18;15.07;;;12.30;;
18499;SDS011;9379;52.134;11.576;2023-02-07T03:10:53;13.45;;;11.40;;
18499;SDS011;9379;52.134;11.576;2023-02-07T03:13:26;15.80;;;12.43;;
18499;SDS011;9379;52.134;11.576;2023-02-07T03:16:01;15.23;;;11.90;;
18499;SDS011;9379;52.134;11.576;2023-02-07T03:18:35;16.08;;;12.43;;
18499;SDS011;9379;52.134;11.576;2023-02-07T03:21:11;16.00;;;12.73;;
18499;SDS011;9379;52.134;11.576;2023-02-07T03:23:47;18.25;;;13.57;;
18499;SDS011;9379;52.134;11.576;2023-02-07T03:26:18;21.98;;;12.35;;
18499;SDS011;9379;52.134;11.576;2023-02-07T03:28:48;22.52;;;13.10;;
18499;SDS011;9379;52.134;11.576;2023-02-07T03:31:16;13.88;;;12.38;;
18499;SDS011;9379;52.134;11.576;2023-02-07T03:33:48;19.65;;;13.32;;
18499;SDS011;9379;52.134;11.576;2023-02-07T03:36:21;26.88;;;15.18;;
18499;SDS011;9379;52.134;11.576;2023-02-07T03:38:52;17.75;;;12.23;;
18499;SDS011;9379;52.134;11.576;2023-02-07T03:41:22;16.98;;;11.57;;
18499;SDS011;9379;52.134;11.576;2023-02-07T03:43:55;21.50;;;13.43;;
18499;SDS011;9379;52.134;11.576;2023-02-07T03:46:31;15.90;;;13.50;;
18499;SDS011;9379;52.134;11.576;2023-02-07T03:48:59;18.25;;;12.35;;
18499;SDS011;9379;52.134;11.576;2023-02-07T03:51:27;22.97;;;14.97;;
18499;SDS011;9379;52.134;11.576;2023-02-07T03:53:54;21.02;;;14.13;;
18499;SDS011;9379;52.134;11.576;2023-02-07T03:56:21;23.48;;;15.32;;
18499;SDS011;9379;52.134;11.576;2023-02-07T03:58:48;24.13;;;16.85;;
18499;SDS011;9379;52.134;11.576;2023-02-07T04:01:14;20.67;;;14.30;;
18499;SDS011;9379;52.134;11.576;2023-02-07T04:03:41;22.27;;;15.15;;
18499;SDS011;9379;52.134;11.576;2023-02-07T04:06:08;17.87;;;12.97;;
18499;SDS011;9379;52.134;11.576;2023-02-07T04:08:36;17.20;;;13.25;;
18499;SDS011;9379;52.134;11.576;2023-02-07T04:11:03;17.88;;;12.82;;
18499;SDS011;9379;52.134;11.576;2023-02-07T04:13:30;16.67;;;12.18;;
18499;SDS011;9379;52.134;11.576;2023-02-07T04:15:57;19.40;;;14.07;;
18499;SDS011;9379;52.134;11.576;2023-02-07T04:18:24;18.50;;;12.00;;
18499;SDS011;9379;52.134;11.576;2023-02-07T04:20:50;18.58;;;12.90;;
18499;SDS011;9379;52.134;11.576;2023-02-07T04:23:17;18.63;;;15.52;;
18499;SDS011;9379;52.134;11.576;2023-02-07T04:25:45;19.40;;;14.23;;
18499;SDS011;9379;52.134;11.576;2023-02-07T04:28:12;22.15;;;14.63;;
18499;SDS011;9379;52.134;11.576;2023-02-07T04:30:39;23.27;;;15.30;;
18499;SDS011;9379;52.134;11.576;2023-02-07T04:33:06;19.55;;;14.98;;
18499;SDS011;9379;52.134;11.576;2023-02-07T04:35:32;21.00;;;13.83;;
18499;SDS011;9379;52.134;11.576;2023-02-07T04:37:59;23.33;;;16.53;;
18499;SDS011;9379;52.134;11.576;2023-02-07T04:40:26;16.88;;;14.15;;
18499;SDS011;9379;52.134;11.576;2023-02-07T04:42:54;19.47;;;14.93;;
18499;SDS011;9379;52.134;11.576;2023-02-07T04:45:21;21.92;;;15.27;;
18499;SDS011;9379;52.134;11.576;2023-02-07T04:47:47;23.95;;;17.27;;
18499;SDS011;9379;52.134;11.576;2023-02-07T04:50:14;21.48;;;17.75;;
18499;SDS011;9379;52.134;11.576;2023-02-07T04:52:41;24.97;;;16.93;;
18499;SDS011;9379;52.134;11.576;2023-02-07T04:55:08;20.40;;;14.27;;
18499;SDS011;9379;52.134;11.576;2023-02-07T04:57:35;21.38;;;15.82;;
18499;SDS011;9379;52.134;11.576;2023-02-07T05:00:03;26.20;;;15.33;;
18499;SDS011;9379;52.134;11.576;2023-02-07T05:02:31;30.70;;;16.97;;
18499;SDS011;9379;52.134;11.576;2023-02-07T05:04:57;21.40;;;15.47;;
18499;SDS011;9379;52.134;11.576;2023-02-07T05:07:27;20.70;;;14.00;;
18499;SDS011;9379;52.134;11.576;2023-02-07T05:09:53;21.97;;;15.10;;
18499;SDS011;9379;52.134;11.576;2023-02-07T05:12:20;22.03;;;13.27;;
18499;SDS011;9379;52.134;11.576;2023-02-07T05:14:47;25.97;;;17.93;;
18499;SDS011;9379;52.134;11.576;2023-02-07T05:17:15;19.37;;;13.63;;
18499;SDS011;9379;52.134;11.576;2023-02-07T05:19:42;24.53;;;16.07;;
18499;SDS011;9379;52.134;11.576;2023-02-07T05:22:09;17.03;;;12.37;;
18499;SDS011;9379;52.134;11.576;2023-02-07T05:24:36;21.93;;;17.90;;
18499;SDS011;9379;52.134;11.576;2023-02-07T05:27:02;18.80;;;16.03;;
18499;SDS011;9379;52.134;11.576;2023-02-07T05:29:29;18.77;;;12.87;;
18499;SDS011;9379;52.134;11.576;2023-02-07T05:31:56;17.07;;;13.33;;
18499;SDS011;9379;52.134;11.576;2023-02-07T05:34:41;14.50;;;11.23;;
18499;SDS011;9379;52.134;11.576;2023-02-07T05:37:08;14.40;;;11.27;;
18499;SDS011;9379;52.134;11.576;2023-02-07T05:39:35;20.60;;;15.33;;
18499;SDS011;9379;52.134;11.576;2023-02-07T05:42:02;22.07;;;15.73;;
18499;SDS011;9379;52.134;11.576;2023-02-07T05:44:29;22.27;;;14.57;;
18499;SDS011;9379;52.134;11.576;2023-02-07T05:46:55;20.67;;;15.27;;
18499;SDS011;9379;52.134;11.576;2023-02-07T05:49:22;26.13;;;18.67;;
18499;SDS011;9379;52.134;11.576;2023-02-07T05:51:50;23.80;;;18.03;;
18499;SDS011;9379;52.134;11.576;2023-02-07T05:54:17;26.53;;;17.83;;
18499;SDS011;9379;52.134;11.576;2023-02-07T05:56:44;26.37;;;17.10;;
18499;SDS011;9379;52.134;11.576;2023-02-07T05:59:11;26.90;;;17.97;;
18499;SDS011;9379;52.134;11.576;2023-02-07T06:01:37;38.77;;;22.67;;
18499;SDS011;9379;52.134;11.576;2023-02-07T06:04:04;36.13;;;22.60;;
18499;SDS011;9379;52.134;11.576;2023-02-07T06:06:31;32.53;;;22.90;;
18499;SDS011;9379;52.134;11.576;2023-02-07T06:08:59;29.30;;;20.73;;
18499;SDS011;9379;52.134;11.576;2023-02-07T06:11:26;25.70;;;18.70;;
18499;SDS011;9379;52.134;11.576;2023-02-07T06:13:53;36.37;;;21.67;;
18499;SDS011;9379;52.134;11.576;2023-02-07T06:16:20;33.47;;;22.47;;
18499;SDS011;9379;52.134;11.576;2023-02-07T06:18:46;25.40;;;19.87;;
18499;SDS011;9379;52.134;11.576;2023-02-07T06:21:13;39.97;;;23.60;;
18499;SDS011;9379;52.134;11.576;2023-02-07T06:23:40;27.83;;;18.77;;
18499;SDS011;9379;52.134;11.576;2023-02-07T06:26:08;34.87;;;22.23;;
18499;SDS011;9379;52.134;11.576;2023-02-07T06:28:35;26.95;;;20.52;;
18499;SDS011;9379;52.134;11.576;2023-02-07T06:31:02;34.53;;;21.60;;
18499;SDS011;9379;52.134;11.576;2023-02-07T06:33:28;36.13;;;18.60;;
18499;SDS011;9379;52.134;11.576;2023-02-07T06:35:55;29.03;;;18.23;;
18499;SDS011;9379;52.134;11.576;2023-02-07T06:38:24;34.23;;;19.27;;
18499;SDS011;9379;52.134;11.576;2023-02-07T06:40:51;29.27;;;18.53;;
18499;SDS011;9379;52.134;11.576;2023-02-07T06:43:19;28.00;;;18.67;;
18499;SDS011;9379;52.134;11.576;2023-02-07T06:45:46;25.60;;;16.30;;
18499;SDS011;9379;52.134;11.576;2023-02-07T06:48:12;20.97;;;17.20;;
18499;SDS011;9379;52.134;11.576;2023-02-07T06:50:39;28.27;;;22.07;;
18499;SDS011;9379;52.134;11.576;2023-02-07T06:53:06;23.80;;;17.43;;
18499;SDS011;9379;52.134;11.576;2023-02-07T06:55:35;25.23;;;18.93;;
18499;SDS011;9379;52.134;11.576;2023-02-07T06:58:03;21.70;;;17.67;;
18499;SDS011;9379;52.134;11.576;2023-02-07T07:00:32;27.30;;;19.63;;
18499;SDS011;9379;52.134;11.576;2023-02-07T07:02:59;24.92;;;19.42;;
18499;SDS011;9379;52.134;11.576;2023-02-07T07:05:26;29.00;;;20.47;;
18499;SDS011;9379;52.134;11.576;2023-02-07T07:07:53;28.50;;;17.70;;
18499;SDS011;9379;52.134;11.576;2023-02-07T07:10:21;28.15;;;18.67;;
18499;SDS011;9379;52.134;11.576;2023-02-07T07:12:48;38.63;;;18.48;;
18499;SDS011;9379;52.134;11.576;2023-02-07T07:15:14;31.27;;;20.03;;
18499;SDS011;9379;52.134;11.576;2023-02-07T07:17:43;24.47;;;18.63;;
18499;SDS011;9379;52.134;11.576;2023-02-07T07:20:10;29.13;;;19.33;;
18499;SDS011;9379;52.134;11.576;2023-02-07T07:22:37;28.47;;;20.97;;
18499;SDS011;9379;52.134;11.576;2023-02-07T07:25:04;32.60;;;20.87;;
18499;SDS011;9379;52.134;11.576;2023-02-07T07:27:31;23.70;;;18.90;;
18499;SDS011;9379;52.134;11.576;2023-02-07T07:29:58;28.48;;;20.70;;
18499;SDS011;9379;52.134;11.576;2023-02-07T07:32:25;34.17;;;23.47;;
18499;SDS011;9379;52.134;11.576;2023-02-07T07:34:53;25.83;;;20.33;;
18499;SDS011;9379;52.134;11.576;2023-02-07T07:37:20;28.10;;;21.30;;
18499;SDS011;9379;52.134;11.576;2023-02-07T07:39:47;42.57;;;27.10;;
18499;SDS011;9379;52.134;11.576;2023-02-07T07:42:14;26.80;;;23.47;;
18499;SDS011;9379;52.134;11.576;2023-02-07T07:44:40;28.97;;;20.73;;
18499;SDS011;9379;52.134;11.576;2023-02-07T07:47:07;27.03;;;20.97;;
18499;SDS011;9379;52.134;11.576;2023-02-07T07:49:34;31.73;;;22.33;;
18499;SDS011;9379;52.134;11.576;2023-02-07T07:52:02;25.53;;;17.03;;
18499;SDS011;9379;52.134;11.576;2023-02-07T07:54:29;22.97;;;17.10;;
18499;SDS011;9379;52.134;11.576;2023-02-07T07:56:56;27.03;;;20.23;;
18499;SDS011;9379;52.134;11.576;2023-02-07T07:59:23;22.60;;;17.83;;
18499;SDS011;9379;52.134;11.576;2023-02-07T08:01:50;29.63;;;18.53;;
18499;SDS011;9379;52.134;11.576;2023-02-07T08:04:17;25.30;;;17.77;;
18499;SDS011;9379;52.134;11.576;2023-02-07T08:06:44;29.40;;;19.20;;
18499;SDS011;9379;52.134;11.576;2023-02-07T08:09:12;22.37;;;19.00;;
18499;SDS011;9379;52.134;11.576;2023-02-07T08:11:39;30.47;;;21.70;;
18499;SDS011;9379;52.134;11.576;2023-02-07T08:14:05;22.97;;;17.97;;
18499;SDS011;9379;52.134;11.576;2023-02-07T08:16:32;25.77;;;17.93;;
18499;SDS011;9379;52.134;11.576;2023-02-07T08:18:59;23.47;;;17.00;;
18499;SDS011;9379;52.134;11.576;2023-02-07T08:21:26;25.20;;;18.47;;
18499;SDS011;9379;52.134;11.576;2023-02-07T08:23:53;29.63;;;21.23;;
18499;SDS011;9379;52.134;11.576;2023-02-07T08:26:21;30.57;;;21.00;;
18499;SDS011;9379;52.134;11.576;2023-02-07T08:28:48;27.73;;;21.07;;
18499;SDS011;9379;52.134;11.576;2023-02-07T08:31:16;25.03;;;18.13;;
18499;SDS011;9379;52.134;11.576;2023-02-07T08:33:43;37.57;;;22.47;;
18499;SDS011;9379;52.134;11.576;2023-02-07T08:36:10;27.07;;;19.43;;
18499;SDS011;9379;52.134;11.576;2023-02-07T08:38:37;29.47;;;21.40;;
18499;SDS011;9379;52.134;11.576;2023-02-07T08:41:04;28.23;;;20.70;;
18499;SDS011;9379;52.134;11.576;2023-02-07T08:43:32;27.70;;;20.07;;
18499;SDS011;9379;52.134;11.576;2023-02-07T08:45:59;26.37;;;19.43;;
18499;SDS011;9379;52.134;11.576;2023-02-07T08:48:26;21.90;;;17.20;;
18499;SDS011;9379;52.134;11.576;2023-02-07T08:50:53;23.97;;;17.80;;
18499;SDS011;9379;52.134;11.576;2023-02-07T08:53:20;23.97;;;18.13;;
18499;SDS011;9379;52.134;11.576;2023-02-07T08:55:47;27.50;;;19.43;;
18499;SDS011;9379;52.134;11.576;2023-02-07T08:58:14;20.47;;;17.30;;
18499;SDS011;9379;52.134;11.576;2023-02-07T09:00:42;33.40;;;21.40;;
18499;SDS011;9379;52.134;11.576;2023-02-07T09:03:09;28.27;;;21.00;;
18499;SDS011;9379;52.134;11.576;2023-02-07T09:05:35;24.67;;;19.23;;
18499;SDS011;9379;52.134;11.576;2023-02-07T09:08:05;28.90;;;20.37;;
18499;SDS011;9379;52.134;11.576;2023-02-07T09:10:31;20.90;;;17.40;;
18499;SDS011;9379;52.134;11.576;2023-02-07T09:12:58;22.37;;;18.43;;
18499;SDS011;9379;52.134;11.576;2023-02-07T09:15:25;28.10;;;20.00;;
18499;SDS011;9379;52.134;11.576;2023-02-07T09:17:53;23.50;;;18.90;;
18499;SDS011;9379;52.134;11.576;2023-02-07T09:20:20;22.10;;;17.47;;
18499;SDS011;9379;52.134;11.576;2023-02-07T09:22:47;23.13;;;20.03;;
18499;SDS011;9379;52.134;11.576;2023-02-07T09:25:31;20.63;;;15.87;;
18499;SDS011;9379;52.134;11.576;2023-02-07T09:27:58;19.20;;;15.27;;
18499;SDS011;9379;52.134;11.576;2023-02-07T09:30:25;24.17;;;18.73;;
18499;SDS011;9379;52.134;11.576;2023-02-07T09:32:51;28.30;;;19.27;;
18499;SDS011;9379;52.134;11.576;2023-02-07T09:35:19;32.37;;;19.40;;
18499;SDS011;9379;52.134;11.576;2023-02-07T09:37:47;31.67;;;22.43;;
18499;SDS011;9379;52.134;11.576;2023-02-07T09:40:14;40.80;;;24.03;;
18499;SDS011;9379;52.134;11.576;2023-02-07T09:42:46;34.80;;;24.95;;
18499;SDS011;9379;52.134;11.576;2023-02-07T09:45:21;35.13;;;21.80;;
18499;SDS011;9379;52.134;11.576;2023-02-07T09:47:51;42.13;;;26.50;;
18499;SDS011;9379;52.134;11.576;2023-02-07T09:50:26;44.87;;;26.73;;
18499;SDS011;9379;52.134;11.576;2023-02-07T09:52:57;35.70;;;25.07;;
18499;SDS011;9379;52.134;11.576;2023-02-07T09:55:30;37.70;;;26.23;;
18499;SDS011;9379;52.134;11.576;2023-02-07T09:58:05;52.00;;;30.63;;
18499;SDS011;9379;52.134;11.576;2023-02-07T10:00:37;39.77;;;24.73;;
18499;SDS011;9379;52.134;11.576;2023-02-07T10:03:08;40.70;;;24.67;;
18499;SDS011;9379;52.134;11.576;2023-02-07T10:05:43;31.03;;;22.73;;
18499;SDS011;9379;52.134;11.576;2023-02-07T10:08:14;30.93;;;22.03;;
18499;SDS011;9379;52.134;11.576;2023-02-07T10:10:44;34.75;;;20.15;;
18499;SDS011;9379;52.134;11.576;2023-02-07T10:13:20;26.07;;;22.37;;
18499;SDS011;9379;52.134;11.576;2023-02-07T10:16:06;27.42;;;18.90;;
18499;SDS011;9379;52.134;11.576;2023-02-07T10:18:43;25.07;;;21.23;;
18499;SDS011;9379;52.134;11.576;2023-02-07T10:21:17;27.27;;;20.07;;
18499;SDS011;9379;52.134;11.576;2023-02-07T10:24:05;35.77;;;25.53;;
18499;SDS011;9379;52.134;11.576;2023-02-07T10:26:49;26.03;;;20.63;;
18499;SDS011;9379;52.134;11.576;2023-02-07T10:29:22;27.17;;;21.77;;
18499;SDS011;9379;52.134;11.576;2023-02-07T10:31:59;26.57;;;19.07;;
18499;SDS011;9379;52.134;11.576;2023-02-07T10:34:34;24.60;;;21.70;;
18499;SDS011;9379;52.134;11.576;2023-02-07T10:37:10;40.10;;;22.10;;
18499;SDS011;9379;52.134;11.576;2023-02-07T10:39:44;23.77;;;18.00;;
18499;SDS011;9379;52.134;11.576;2023-02-07T10:42:18;24.57;;;19.90;;
18499;SDS011;9379;52.134;11.576;2023-02-07T10:44:45;24.00;;;19.83;;
18499;SDS011;9379;52.134;11.576;2023-02-07T10:47:14;24.65;;;21.33;;
18499;SDS011;9379;52.134;11.576;2023-02-07T10:49:43;28.88;;;22.77;;
18499;SDS011;9379;52.134;11.576;2023-02-07T10:55:03;31.25;;;20.90;;
18499;SDS011;9379;52.134;11.576;2023-02-07T10:57:32;28.57;;;18.57;;
18499;SDS011;9379;52.134;11.576;2023-02-07T11:00:03;24.10;;;18.87;;
18499;SDS011;9379;52.134;11.576;2023-02-07T11:02:46;26.87;;;17.77;;
18499;SDS011;9379;52.134;11.576;2023-02-07T11:05:29;25.87;;;20.13;;
18499;SDS011;9379;52.134;11.576;2023-02-07T11:08:00;26.57;;;18.07;;
18499;SDS011;9379;52.134;11.576;2023-02-07T11:10:31;25.87;;;19.23;;
18499;SDS011;9379;52.134;11.576;2023-02-07T11:13:00;27.40;;;20.85;;
18499;SDS011;9379;52.134;11.576;2023-02-07T11:15:30;29.48;;;18.75;;
18499;SDS011;9379;52.134;11.576;2023-02-07T11:18:01;26.43;;;18.70;;
18499;SDS011;9379;52.134;11.576;2023-02-07T11:20:29;31.90;;;21.80;;
18499;SDS011;9379;52.134;11.576;2023-02-07T11:23:01;29.08;;;21.05;;
18499;SDS011;9379;52.134;11.576;2023-02-07T11:25:33;23.10;;;16.65;;
18499;SDS011;9379;52.134;11.576;2023-02-07T11:28:02;22.88;;;17.75;;
18499;SDS011;9379;52.134;11.576;2023-02-07T11:30:30;22.90;;;16.43;;
18499;SDS011;9379;52.134;11.576;2023-02-07T11:33:02;30.73;;;21.70;;
18499;SDS011;9379;52.134;11.576;2023-02-07T11:35:30;24.90;;;19.70;;
18499;SDS011;9379;52.134;11.576;2023-02-07T11:37:58;28.15;;;20.85;;
18499;SDS011;9379;52.134;11.576;2023-02-07T11:40:28;26.90;;;18.88;;
18499;SDS011;9379;52.134;11.576;2023-02-07T11:43:02;18.52;;;14.10;;
18499;SDS011;9379;52.134;11.576;2023-02-07T11:45:37;29.00;;;18.60;;
18499;SDS011;9379;52.134;11.576;2023-02-07T11:48:05;21.67;;;15.98;;
18499;SDS011;9379;52.134;11.576;2023-02-07T11:50:42;22.88;;;18.83;;
18499;SDS011;9379;52.134;11.576;2023-02-07T11:53:18;21.07;;;18.67;;
18499;SDS011;9379;52.134;11.576;2023-02-07T11:55:49;21.23;;;17.75;;
18499;SDS011;9379;52.134;11.576;2023-02-07T11:58:19;24.98;;;19.80;;
18499;SDS011;9379;52.134;11.576;2023-02-07T12:00:53;31.33;;;21.13;;
18499;SDS011;9379;52.134;11.576;2023-02-07T12:03:21;27.52;;;19.60;;
18499;SDS011;9379;52.134;11.576;2023-02-07T12:05:51;25.97;;;21.73;;
18499;SDS011;9379;52.134;11.576;2023-02-07T12:08:22;24.83;;;18.02;;
18499;SDS011;9379;52.134;11.576;2023-02-07T12:10:53;25.70;;;18.83;;
18499;SDS011;9379;52.134;11.576;2023-02-07T12:13:25;28.35;;;22.55;;
18499;SDS011;9379;52.134;11.576;2023-02-07T12:15:56;35.28;;;23.30;;
18499;SDS011;9379;52.134;11.576;2023-02-07T12:18:26;32.03;;;23.55;;
18499;SDS011;9379;52.134;11.576;2023-02-07T12:20:57;29.13;;;22.65;;
18499;SDS011;9379;52.134;11.576;2023-02-07T12:23:36;29.90;;;21.17;;
18499;SDS011;9379;52.134;11.576;2023-02-07T12:26:11;28.10;;;19.52;;
18499;SDS011;9379;52.134;11.576;2023-02-07T12:28:43;27.75;;;22.92;;
18499;SDS011;9379;52.134;11.576;2023-02-07T12:31:18;24.75;;;19.20;;
18499;SDS011;9379;52.134;11.576;2023-02-07T12:33:53;33.47;;;22.95;;
18499;SDS011;9379;52.134;11.576;2023-02-07T12:36:25;32.10;;;23.08;;
18499;SDS011;9379;52.134;11.576;2023-02-07T12:38:57;30.88;;;22.05;;
18499;SDS011;9379;52.134;11.576;2023-02-07T12:41:29;34.05;;;21.98;;
18499;SDS011;9379;52.134;11.576;2023-02-07T12:44:03;32.70;;;23.67;;
18499;SDS011;9379;52.134;11.576;2023-02-07T12:46:38;34.38;;;24.45;;
18499;SDS011;9379;52.134;11.576;2023-02-07T12:49:16;30.52;;;22.98;;
18499;SDS011;9379;52.134;11.576;2023-02-07T12:51:54;35.47;;;24.35;;
18499;SDS011;9379;52.134;11.576;2023-02-07T12:54:34;33.30;;;23.50;;
18499;SDS011;9379;52.134;11.576;2023-02-07T12:57:14;30.50;;;21.73;;
18499;SDS011;9379;52.134;11.576;2023-02-07T12:59:51;25.05;;;20.40;;
18499;SDS011;9379;52.134;11.576;2023-02-07T13:02:34;25.77;;;20.40;;
18499;SDS011;9379;52.134;11.576;2023-02-07T13:08:24;30.58;;;22.40;;
18499;SDS011;9379;52.134;11.576;2023-02-07T13:11:02;27.15;;;21.92;;
18499;SDS011;9379;52.134;11.576;2023-02-07T13:13:37;29.85;;;23.15;;
18499;SDS011;9379;52.134;11.576;2023-02-07T13:16:13;22.75;;;19.08;;
18499;SDS011;9379;52.134;11.576;2023-02-07T13:18:45;30.20;;;22.67;;
18499;SDS011;9379;52.134;11.576;2023-02-07T13:21:19;31.48;;;23.77;;
18499;SDS011;9379;52.134;11.576;2023-02-07T13:23:51;31.13;;;22.92;;
18499;SDS011;9379;52.134;11.576;2023-02-07T13:26:26;28.37;;;20.97;;
18499;SDS011;9379;52.134;11.576;2023-02-07T13:28:55;32.70;;;22.25;;
18499;SDS011;9379;52.134;11.576;2023-02-07T13:31:26;28.35;;;21.40;;
18499;SDS011;9379;52.134;11.576;2023-02-07T13:34:02;27.63;;;20.30;;
18499;SDS011;9379;52.134;11.576;2023-02-07T13:36:32;34.10;;;22.63;;
18499;SDS011;9379;52.134;11.576;2023-02-07T13:39:09;32.53;;;24.38;;
18499;SDS011;9379;52.134;11.576;2023-02-07T13:41:50;30.93;;;22.10;;
18499;SDS011;9379;52.134;11.576;2023-02-07T13:44:25;38.85;;;25.55;;
18499;SDS011;9379;52.134;11.576;2023-02-07T13:50:03;40.92;;;24.80;;
18499;SDS011;9379;52.134;11.576;2023-02-07T13:52:41;28.10;;;21.43;;
18499;SDS011;9379;52.134;11.576;2023-02-07T13:55:14;36.73;;;18.67;;
18499;SDS011;9379;52.134;11.576;2023-02-07T13:57:49;25.23;;;17.53;;
18499;SDS011;9379;52.134;11.576;2023-02-07T14:00:35;33.08;;;22.52;;
18499;SDS011;9379;52.134;11.576;2023-02-07T14:03:27;37.63;;;24.20;;
18499;SDS011;9379;52.134;11.576;2023-02-07T14:06:11;47.20;;;25.43;;
18499;SDS011;9379;52.134;11.576;2023-02-07T14:08:41;34.63;;;23.40;;
18499;SDS011;9379;52.134;11.576;2023-02-07T14:11:17;34.27;;;23.67;;
18499;SDS011;9379;52.134;11.576;2023-02-07T14:14:04;36.97;;;24.80;;
18499;SDS011;9379;52.134;11.576;2023-02-07T14:16:42;40.40;;;25.25;;
18499;SDS011;9379;52.134;11.576;2023-02-07T14:19:15;43.03;;;26.83;;
18499;SDS011;9379;52.134;11.576;2023-02-07T14:22:17;30.80;;;20.65;;
18499;SDS011;9379;52.134;11.576;2023-02-07T14:24:47;33.67;;;22.80;;
18499;SDS011;9379;52.134;11.576;2023-02-07T14:27:30;40.03;;;26.38;;
18499;SDS011;9379;52.134;11.576;2023-02-07T14:39:00;37.73;;;23.37;;
18499;SDS011;9379;52.134;11.576;2023-02-07T14:41:30;44.27;;;27.60;;
18499;SDS011;9379;52.134;11.576;2023-02-07T14:43:59;39.10;;;25.27;;
18499;SDS011;9379;52.134;11.576;2023-02-07T14:46:30;38.17;;;23.50;;
18499;SDS011;9379;52.134;11.576;2023-02-07T14:49:00;35.50;;;24.13;;
18499;SDS011;9379;52.134;11.576;2023-02-07T14:51:30;44.93;;;26.83;;
18499;SDS011;9379;52.134;11.576;2023-02-07T14:54:05;30.25;;;21.15;;
18499;SDS011;9379;52.134;11.576;2023-02-07T14:56:47;37.55;;;22.58;;
18499;SDS011;9379;52.134;11.576;2023-02-07T14:59:26;32.27;;;22.10;;
18499;SDS011;9379;52.134;11.576;2023-02-07T15:04:58;37.40;;;21.13;;
18499;SDS011;9379;52.134;11.576;2023-02-07T15:07:45;51.33;;;26.63;;
18499;SDS011;9379;52.134;11.576;2023-02-07T15:10:13;34.60;;;23.48;;
18499;SDS011;9379;52.134;11.576;2023-02-07T15:12:40;36.47;;;23.50;;